sensor_id;sensor_type;location;lat;lon;timestamp;temperature;humidity
15241;DHT22;7723;52.170;9.978;2022-10-31T00:00:33;14.40;99.90
15241;DHT22;7723;52.170;9.978;2022-10-31T00:03:00;14.60;99.90
15241;DHT22;7723;52.170;9.978;2022-10-31T00:05:27;14.40;99.90
15241;DHT22;7723;52.170;9.978;2022-10-31T00:07:56;14.40;99.90
15241;DHT22;7723;52.170;9.978;2022-10-31T00:10:23;14.50;99.90
15241;DHT22;7723;52.170;9.978;2022-10-31T00:12:51;14.50;99.90
15241;DHT22;7723;52.170;9.978;2022-10-31T00:15:18;14.40;99.90
15241;DHT22;7723;52.170;9.978;2022-10-31T00:17:45;14.30;99.90
15241;DHT22;7723;52.170;9.978;2022-10-31T00:20:12;14.40;99.90
15241;DHT22;7723;52.170;9.978;2022-10-31T00:22:40;14.40;99.90
15241;DHT22;7723;52.170;9.978;2022-10-31T00:25:08;14.40;99.90
15241;DHT22;7723;52.170;9.978;2022-10-31T00:27:36;14.40;99.90
15241;DHT22;7723;52.170;9.978;2022-10-31T00:30:03;14.30;99.90
15241;DHT22;7723;52.170;9.978;2022-10-31T00:32:31;14.30;99.90
15241;DHT22;7723;52.170;9.978;2022-10-31T00:34:58;14.30;99.90
15241;DHT22;7723;52.170;9.978;2022-10-31T00:37:26;14.30;99.90
15241;DHT22;7723;52.170;9.978;2022-10-31T00:39:53;14.30;99.90
15241;DHT22;7723;52.170;9.978;2022-10-31T00:42:22;14.20;99.90
15241;DHT22;7723;52.170;9.978;2022-10-31T00:44:49;14.20;99.90
15241;DHT22;7723;52.170;9.978;2022-10-31T00:47:16;14.30;99.90
15241;DHT22;7723;52.170;9.978;2022-10-31T00:49:43;14.20;99.90
15241;DHT22;7723;52.170;9.978;2022-10-31T00:52:10;14.20;99.90
15241;DHT22;7723;52.170;9.978;2022-10-31T00:54:38;14.10;99.90
15241;DHT22;7723;52.170;9.978;2022-10-31T00:57:05;14.10;99.90
15241;DHT22;7723;52.170;9.978;2022-10-31T00:59:33;14.10;99.90
15241;DHT22;7723;52.170;9.978;2022-10-31T01:02:00;14.00;99.90
15241;DHT22;7723;52.170;9.978;2022-10-31T01:04:28;14.00;99.90
15241;DHT22;7723;52.170;9.978;2022-10-31T01:06:55;14.00;99.90
15241;DHT22;7723;52.170;9.978;2022-10-31T01:09:22;13.90;99.90
15241;DHT22;7723;52.170;9.978;2022-10-31T01:11:49;13.90;99.90
15241;DHT22;7723;52.170;9.978;2022-10-31T01:14:16;13.80;99.90
15241;DHT22;7723;52.170;9.978;2022-10-31T01:16:45;13.70;99.90
15241;DHT22;7723;52.170;9.978;2022-10-31T01:19:12;13.60;99.90
15241;DHT22;7723;52.170;9.978;2022-10-31T01:21:39;13.50;99.90
15241;DHT22;7723;52.170;9.978;2022-10-31T01:24:07;13.50;99.90
15241;DHT22;7723;52.170;9.978;2022-10-31T01:26:35;13.40;99.90
15241;DHT22;7723;52.170;9.978;2022-10-31T01:29:05;13.30;99.90
15241;DHT22;7723;52.170;9.978;2022-10-31T01:31:34;13.30;99.90
15241;DHT22;7723;52.170;9.978;2022-10-31T01:34:03;13.20;99.90
15241;DHT22;7723;52.170;9.978;2022-10-31T01:36:34;13.00;99.90
15241;DHT22;7723;52.170;9.978;2022-10-31T01:39:04;13.10;99.90
15241;DHT22;7723;52.170;9.978;2022-10-31T01:41:33;13.00;99.90
15241;DHT22;7723;52.170;9.978;2022-10-31T01:44:02;13.20;99.90
15241;DHT22;7723;52.170;9.978;2022-10-31T01:46:32;13.20;99.90
15241;DHT22;7723;52.170;9.978;2022-10-31T01:49:04;13.30;99.90
15241;DHT22;7723;52.170;9.978;2022-10-31T01:51:34;13.30;99.90
15241;DHT22;7723;52.170;9.978;2022-10-31T01:54:05;13.40;99.90
15241;DHT22;7723;52.170;9.978;2022-10-31T01:56:34;13.40;99.90
15241;DHT22;7723;52.170;9.978;2022-10-31T01:59:07;13.50;99.90
15241;DHT22;7723;52.170;9.978;2022-10-31T02:01:35;13.60;99.90
15241;DHT22;7723;52.170;9.978;2022-10-31T02:04:04;13.60;99.90
15241;DHT22;7723;52.170;9.978;2022-10-31T02:06:36;13.60;99.90
15241;DHT22;7723;52.170;9.978;2022-10-31T02:09:05;13.70;99.90
15241;DHT22;7723;52.170;9.978;2022-10-31T02:11:34;13.80;99.90
15241;DHT22;7723;52.170;9.978;2022-10-31T02:14:03;13.80;99.90
15241;DHT22;7723;52.170;9.978;2022-10-31T02:16:30;13.90;99.90
15241;DHT22;7723;52.170;9.978;2022-10-31T02:18:57;13.90;99.90
15241;DHT22;7723;52.170;9.978;2022-10-31T02:21:31;13.90;99.90
15241;DHT22;7723;52.170;9.978;2022-10-31T02:24:34;13.90;99.90
15241;DHT22;7723;52.170;9.978;2022-10-31T02:27:17;14.00;99.90
15241;DHT22;7723;52.170;9.978;2022-10-31T02:30:05;13.90;99.90
15241;DHT22;7723;52.170;9.978;2022-10-31T02:32:52;14.00;99.90
15241;DHT22;7723;52.170;9.978;2022-10-31T02:35:39;13.80;99.90
15241;DHT22;7723;52.170;9.978;2022-10-31T02:38:15;13.80;99.90
15241;DHT22;7723;52.170;9.978;2022-10-31T02:40:51;13.70;99.90
15241;DHT22;7723;52.170;9.978;2022-10-31T02:43:24;13.60;99.90
15241;DHT22;7723;52.170;9.978;2022-10-31T02:45:57;13.50;99.90
15241;DHT22;7723;52.170;9.978;2022-10-31T02:48:29;13.40;99.90
15241;DHT22;7723;52.170;9.978;2022-10-31T02:51:00;13.30;99.90
15241;DHT22;7723;52.170;9.978;2022-10-31T02:53:31;13.40;99.90
15241;DHT22;7723;52.170;9.978;2022-10-31T02:56:02;13.20;99.90
15241;DHT22;7723;52.170;9.978;2022-10-31T02:58:35;13.10;99.90
15241;DHT22;7723;52.170;9.978;2022-10-31T03:01:18;13.00;99.90
15241;DHT22;7723;52.170;9.978;2022-10-31T03:04:04;12.90;99.90
15241;DHT22;7723;52.170;9.978;2022-10-31T03:06:43;12.80;99.90
15241;DHT22;7723;52.170;9.978;2022-10-31T03:09:17;12.80;99.90
15241;DHT22;7723;52.170;9.978;2022-10-31T03:11:56;12.80;99.90
15241;DHT22;7723;52.170;9.978;2022-10-31T03:14:30;12.70;99.90
15241;DHT22;7723;52.170;9.978;2022-10-31T03:17:01;12.70;99.90
15241;DHT22;7723;52.170;9.978;2022-10-31T03:19:34;12.80;99.90
15241;DHT22;7723;52.170;9.978;2022-10-31T03:22:05;12.80;99.90
15241;DHT22;7723;52.170;9.978;2022-10-31T03:24:37;12.70;99.90
15241;DHT22;7723;52.170;9.978;2022-10-31T03:27:08;12.70;99.90
15241;DHT22;7723;52.170;9.978;2022-10-31T03:29:37;12.60;99.90
15241;DHT22;7723;52.170;9.978;2022-10-31T03:32:07;12.60;99.90
15241;DHT22;7723;52.170;9.978;2022-10-31T03:34:37;12.60;99.90
15241;DHT22;7723;52.170;9.978;2022-10-31T03:37:07;12.50;99.90
15241;DHT22;7723;52.170;9.978;2022-10-31T03:39:37;12.60;99.90
15241;DHT22;7723;52.170;9.978;2022-10-31T03:42:07;12.50;99.90
15241;DHT22;7723;52.170;9.978;2022-10-31T03:44:36;12.40;99.90
15241;DHT22;7723;52.170;9.978;2022-10-31T03:47:04;12.40;99.90
15241;DHT22;7723;52.170;9.978;2022-10-31T03:49:32;12.40;99.90
15241;DHT22;7723;52.170;9.978;2022-10-31T03:52:07;12.40;99.90
15241;DHT22;7723;52.170;9.978;2022-10-31T03:54:42;12.40;99.90
15241;DHT22;7723;52.170;9.978;2022-10-31T03:57:16;12.40;99.90
15241;DHT22;7723;52.170;9.978;2022-10-31T03:59:48;12.30;99.90
15241;DHT22;7723;52.170;9.978;2022-10-31T04:02:20;12.30;99.90
15241;DHT22;7723;52.170;9.978;2022-10-31T04:04:49;12.30;99.90
15241;DHT22;7723;52.170;9.978;2022-10-31T04:07:20;12.30;99.90
15241;DHT22;7723;52.170;9.978;2022-10-31T04:09:49;12.20;99.90
15241;DHT22;7723;52.170;9.978;2022-10-31T04:12:17;12.20;99.90
15241;DHT22;7723;52.170;9.978;2022-10-31T04:14:48;12.10;99.90
15241;DHT22;7723;52.170;9.978;2022-10-31T04:17:18;12.00;99.90
15241;DHT22;7723;52.170;9.978;2022-10-31T04:19:46;12.00;99.90
15241;DHT22;7723;52.170;9.978;2022-10-31T04:22:14;12.00;99.90
15241;DHT22;7723;52.170;9.978;2022-10-31T04:24:42;12.10;99.90
15241;DHT22;7723;52.170;9.978;2022-10-31T04:27:10;12.10;99.90
15241;DHT22;7723;52.170;9.978;2022-10-31T04:29:37;12.10;99.90
15241;DHT22;7723;52.170;9.978;2022-10-31T04:32:04;12.10;99.90
15241;DHT22;7723;52.170;9.978;2022-10-31T04:34:32;12.10;99.90
15241;DHT22;7723;52.170;9.978;2022-10-31T04:36:59;12.00;99.90
15241;DHT22;7723;52.170;9.978;2022-10-31T04:39:26;12.00;99.90
15241;DHT22;7723;52.170;9.978;2022-10-31T04:41:54;12.00;99.90
15241;DHT22;7723;52.170;9.978;2022-10-31T04:44:21;12.00;99.90
15241;DHT22;7723;52.170;9.978;2022-10-31T04:46:49;11.90;99.90
15241;DHT22;7723;52.170;9.978;2022-10-31T04:49:16;11.90;99.90
15241;DHT22;7723;52.170;9.978;2022-10-31T04:51:43;11.90;99.90
15241;DHT22;7723;52.170;9.978;2022-10-31T04:54:10;11.90;99.90
15241;DHT22;7723;52.170;9.978;2022-10-31T04:56:37;11.90;99.90
15241;DHT22;7723;52.170;9.978;2022-10-31T04:59:06;11.90;99.90
15241;DHT22;7723;52.170;9.978;2022-10-31T05:01:33;11.80;99.90
15241;DHT22;7723;52.170;9.978;2022-10-31T05:04:00;11.80;99.90
15241;DHT22;7723;52.170;9.978;2022-10-31T05:06:27;11.80;99.90
15241;DHT22;7723;52.170;9.978;2022-10-31T05:08:55;11.80;99.90
15241;DHT22;7723;52.170;9.978;2022-10-31T05:11:22;11.70;99.90
15241;DHT22;7723;52.170;9.978;2022-10-31T05:13:49;11.70;99.90
15241;DHT22;7723;52.170;9.978;2022-10-31T05:16:17;11.70;99.90
15241;DHT22;7723;52.170;9.978;2022-10-31T05:18:44;11.70;99.90
15241;DHT22;7723;52.170;9.978;2022-10-31T05:21:12;11.70;99.90
15241;DHT22;7723;52.170;9.978;2022-10-31T05:23:39;11.70;99.90
15241;DHT22;7723;52.170;9.978;2022-10-31T05:26:06;11.60;99.90
15241;DHT22;7723;52.170;9.978;2022-10-31T05:28:33;11.60;99.90
15241;DHT22;7723;52.170;9.978;2022-10-31T05:31:00;11.50;99.90
15241;DHT22;7723;52.170;9.978;2022-10-31T05:33:29;11.60;99.90
15241;DHT22;7723;52.170;9.978;2022-10-31T05:35:56;11.60;99.90
15241;DHT22;7723;52.170;9.978;2022-10-31T05:38:23;11.60;99.90
15241;DHT22;7723;52.170;9.978;2022-10-31T05:40:54;11.60;99.90
15241;DHT22;7723;52.170;9.978;2022-10-31T05:43:23;11.50;99.90
15241;DHT22;7723;52.170;9.978;2022-10-31T05:45:52;11.60;99.90
15241;DHT22;7723;52.170;9.978;2022-10-31T05:48:19;11.50;99.90
15241;DHT22;7723;52.170;9.978;2022-10-31T05:50:49;11.50;99.90
15241;DHT22;7723;52.170;9.978;2022-10-31T05:53:16;11.50;99.90
15241;DHT22;7723;52.170;9.978;2022-10-31T05:55:43;11.50;99.90
15241;DHT22;7723;52.170;9.978;2022-10-31T05:58:11;11.40;99.90
15241;DHT22;7723;52.170;9.978;2022-10-31T06:00:38;11.40;99.90
15241;DHT22;7723;52.170;9.978;2022-10-31T06:03:06;11.40;99.90
15241;DHT22;7723;52.170;9.978;2022-10-31T06:05:34;11.40;99.90
15241;DHT22;7723;52.170;9.978;2022-10-31T06:08:02;11.60;99.90
15241;DHT22;7723;52.170;9.978;2022-10-31T06:10:29;11.60;99.90
15241;DHT22;7723;52.170;9.978;2022-10-31T06:12:57;11.50;99.90
15241;DHT22;7723;52.170;9.978;2022-10-31T06:15:24;11.50;99.90
15241;DHT22;7723;52.170;9.978;2022-10-31T06:17:58;11.50;99.90
15241;DHT22;7723;52.170;9.978;2022-10-31T06:20:25;11.60;99.90
15241;DHT22;7723;52.170;9.978;2022-10-31T06:22:53;11.60;99.90
15241;DHT22;7723;52.170;9.978;2022-10-31T06:25:21;11.60;99.90
15241;DHT22;7723;52.170;9.978;2022-10-31T06:27:48;11.60;99.90
15241;DHT22;7723;52.170;9.978;2022-10-31T06:30:15;11.60;99.90
15241;DHT22;7723;52.170;9.978;2022-10-31T06:32:43;11.60;99.90
15241;DHT22;7723;52.170;9.978;2022-10-31T06:35:10;11.60;99.90
15241;DHT22;7723;52.170;9.978;2022-10-31T06:37:37;11.70;99.90
15241;DHT22;7723;52.170;9.978;2022-10-31T06:40:05;11.70;99.90
15241;DHT22;7723;52.170;9.978;2022-10-31T06:42:34;11.80;99.90
15241;DHT22;7723;52.170;9.978;2022-10-31T06:45:01;11.90;99.90
15241;DHT22;7723;52.170;9.978;2022-10-31T06:47:28;11.90;99.90
15241;DHT22;7723;52.170;9.978;2022-10-31T06:49:55;11.90;99.90
15241;DHT22;7723;52.170;9.978;2022-10-31T06:52:22;11.90;99.90
15241;DHT22;7723;52.170;9.978;2022-10-31T06:54:50;12.00;99.90
15241;DHT22;7723;52.170;9.978;2022-10-31T06:57:17;12.20;99.90
15241;DHT22;7723;52.170;9.978;2022-10-31T06:59:45;12.20;99.90
15241;DHT22;7723;52.170;9.978;2022-10-31T07:02:13;12.30;99.90
15241;DHT22;7723;52.170;9.978;2022-10-31T07:04:40;12.40;99.90
15241;DHT22;7723;52.170;9.978;2022-10-31T07:07:07;12.60;99.90
15241;DHT22;7723;52.170;9.978;2022-10-31T07:09:34;12.60;99.90
15241;DHT22;7723;52.170;9.978;2022-10-31T07:12:01;12.80;99.90
15241;DHT22;7723;52.170;9.978;2022-10-31T07:14:28;12.90;99.90
15241;DHT22;7723;52.170;9.978;2022-10-31T07:16:57;12.90;99.90
15241;DHT22;7723;52.170;9.978;2022-10-31T07:19:24;13.00;99.90
15241;DHT22;7723;52.170;9.978;2022-10-31T07:21:51;13.10;99.90
15241;DHT22;7723;52.170;9.978;2022-10-31T07:24:18;13.20;99.90
15241;DHT22;7723;52.170;9.978;2022-10-31T07:26:46;13.30;99.90
15241;DHT22;7723;52.170;9.978;2022-10-31T07:29:13;13.30;99.90
15241;DHT22;7723;52.170;9.978;2022-10-31T07:31:40;13.40;99.90
15241;DHT22;7723;52.170;9.978;2022-10-31T07:34:11;13.40;99.90
15241;DHT22;7723;52.170;9.978;2022-10-31T07:36:38;13.30;99.90
15241;DHT22;7723;52.170;9.978;2022-10-31T07:39:05;13.40;99.90
15241;DHT22;7723;52.170;9.978;2022-10-31T07:41:32;13.50;99.90
15241;DHT22;7723;52.170;9.978;2022-10-31T07:43:59;13.40;99.90
15241;DHT22;7723;52.170;9.978;2022-10-31T07:46:27;13.30;99.90
15241;DHT22;7723;52.170;9.978;2022-10-31T07:48:54;13.40;99.90
15241;DHT22;7723;52.170;9.978;2022-10-31T07:51:22;13.50;99.90
15241;DHT22;7723;52.170;9.978;2022-10-31T07:53:50;13.50;99.90
15241;DHT22;7723;52.170;9.978;2022-10-31T07:56:17;13.60;99.90
15241;DHT22;7723;52.170;9.978;2022-10-31T07:58:44;13.70;99.90
15241;DHT22;7723;52.170;9.978;2022-10-31T08:01:11;13.70;99.90
15241;DHT22;7723;52.170;9.978;2022-10-31T08:03:38;13.80;99.90
15241;DHT22;7723;52.170;9.978;2022-10-31T08:06:06;13.80;99.90
15241;DHT22;7723;52.170;9.978;2022-10-31T08:08:35;13.90;99.90
15241;DHT22;7723;52.170;9.978;2022-10-31T08:11:02;14.00;99.90
15241;DHT22;7723;52.170;9.978;2022-10-31T08:13:30;14.20;99.90
15241;DHT22;7723;52.170;9.978;2022-10-31T08:15:57;14.30;99.90
15241;DHT22;7723;52.170;9.978;2022-10-31T08:18:29;14.50;99.90
15241;DHT22;7723;52.170;9.978;2022-10-31T08:20:57;14.70;99.90
15241;DHT22;7723;52.170;9.978;2022-10-31T08:23:24;14.90;99.90
15241;DHT22;7723;52.170;9.978;2022-10-31T08:25:52;15.00;99.90
15241;DHT22;7723;52.170;9.978;2022-10-31T08:28:19;15.20;99.90
15241;DHT22;7723;52.170;9.978;2022-10-31T08:30:46;15.20;99.90
15241;DHT22;7723;52.170;9.978;2022-10-31T08:33:16;15.20;99.90
15241;DHT22;7723;52.170;9.978;2022-10-31T08:35:43;15.20;99.90
15241;DHT22;7723;52.170;9.978;2022-10-31T08:38:11;14.90;99.90
15241;DHT22;7723;52.170;9.978;2022-10-31T08:40:40;14.90;99.90
15241;DHT22;7723;52.170;9.978;2022-10-31T08:43:11;14.70;99.90
15241;DHT22;7723;52.170;9.978;2022-10-31T08:45:39;14.70;99.90
15241;DHT22;7723;52.170;9.978;2022-10-31T08:48:08;14.70;99.90
15241;DHT22;7723;52.170;9.978;2022-10-31T08:50:36;14.90;99.90
15241;DHT22;7723;52.170;9.978;2022-10-31T08:53:04;14.90;99.90
15241;DHT22;7723;52.170;9.978;2022-10-31T08:55:33;15.10;99.90
15241;DHT22;7723;52.170;9.978;2022-10-31T08:58:01;15.50;99.90
15241;DHT22;7723;52.170;9.978;2022-10-31T09:00:30;15.70;99.90
15241;DHT22;7723;52.170;9.978;2022-10-31T09:02:57;16.00;99.90
15241;DHT22;7723;52.170;9.978;2022-10-31T09:05:25;16.20;99.90
15241;DHT22;7723;52.170;9.978;2022-10-31T09:07:55;16.40;99.90
15241;DHT22;7723;52.170;9.978;2022-10-31T09:10:23;16.60;99.90
15241;DHT22;7723;52.170;9.978;2022-10-31T09:12:55;16.80;99.90
15241;DHT22;7723;52.170;9.978;2022-10-31T09:15:22;17.00;99.90
15241;DHT22;7723;52.170;9.978;2022-10-31T09:17:51;17.10;99.90
15241;DHT22;7723;52.170;9.978;2022-10-31T09:20:18;17.50;99.90
15241;DHT22;7723;52.170;9.978;2022-10-31T09:22:46;17.60;99.90
15241;DHT22;7723;52.170;9.978;2022-10-31T09:25:13;18.00;93.50
15241;DHT22;7723;52.170;9.978;2022-10-31T09:27:40;18.10;64.90
15241;DHT22;7723;52.170;9.978;2022-10-31T09:30:08;18.10;48.80
15241;DHT22;7723;52.170;9.978;2022-10-31T09:32:36;18.40;38.30
15241;DHT22;7723;52.170;9.978;2022-10-31T09:35:05;18.50;28.30
15241;DHT22;7723;52.170;9.978;2022-10-31T09:37:32;18.70;22.20
15241;DHT22;7723;52.170;9.978;2022-10-31T09:39:59;18.60;15.20
15241;DHT22;7723;52.170;9.978;2022-10-31T09:42:37;18.60;11.20
15241;DHT22;7723;52.170;9.978;2022-10-31T09:45:11;18.30;14.70
15241;DHT22;7723;52.170;9.978;2022-10-31T09:47:52;18.60;11.40
15241;DHT22;7723;52.170;9.978;2022-10-31T09:50:36;18.70;12.40
15241;DHT22;7723;52.170;9.978;2022-10-31T09:53:20;18.50;17.90
15241;DHT22;7723;52.170;9.978;2022-10-31T09:55:51;18.40;20.00
15241;DHT22;7723;52.170;9.978;2022-10-31T09:58:22;18.30;23.40
15241;DHT22;7723;52.170;9.978;2022-10-31T10:00:50;18.40;23.70
15241;DHT22;7723;52.170;9.978;2022-10-31T10:03:29;18.40;24.70
15241;DHT22;7723;52.170;9.978;2022-10-31T10:06:06;18.20;23.00
15241;DHT22;7723;52.170;9.978;2022-10-31T10:08:37;17.90;32.80
15241;DHT22;7723;52.170;9.978;2022-10-31T10:11:19;17.90;33.20
15241;DHT22;7723;52.170;9.978;2022-10-31T10:13:59;18.00;39.30
15241;DHT22;7723;52.170;9.978;2022-10-31T10:16:40;18.20;34.30
15241;DHT22;7723;52.170;9.978;2022-10-31T10:19:30;18.10;32.80
15241;DHT22;7723;52.170;9.978;2022-10-31T10:22:05;18.30;37.60
15241;DHT22;7723;52.170;9.978;2022-10-31T10:24:50;18.40;37.50
15241;DHT22;7723;52.170;9.978;2022-10-31T10:27:26;18.30;25.20
15241;DHT22;7723;52.170;9.978;2022-10-31T10:29:59;18.40;25.20
15241;DHT22;7723;52.170;9.978;2022-10-31T10:32:29;18.40;19.80
15241;DHT22;7723;52.170;9.978;2022-10-31T10:35:02;18.30;24.80
15241;DHT22;7723;52.170;9.978;2022-10-31T10:37:38;18.40;17.70
15241;DHT22;7723;52.170;9.978;2022-10-31T10:40:11;18.40;14.50
15241;DHT22;7723;52.170;9.978;2022-10-31T10:42:40;18.30;15.30
15241;DHT22;7723;52.170;9.978;2022-10-31T10:45:24;18.40;17.20
15241;DHT22;7723;52.170;9.978;2022-10-31T10:48:15;18.20;13.90
15241;DHT22;7723;52.170;9.978;2022-10-31T10:50:48;18.20;11.80
15241;DHT22;7723;52.170;9.978;2022-10-31T10:53:29;18.30;15.10
15241;DHT22;7723;52.170;9.978;2022-10-31T10:56:15;18.30;13.70
15241;DHT22;7723;52.170;9.978;2022-10-31T10:58:43;18.40;15.10
15241;DHT22;7723;52.170;9.978;2022-10-31T11:01:12;18.50;15.30
15241;DHT22;7723;52.170;9.978;2022-10-31T11:03:41;18.60;17.80
15241;DHT22;7723;52.170;9.978;2022-10-31T11:06:18;18.50;10.90
15241;DHT22;7723;52.170;9.978;2022-10-31T11:08:49;18.50;11.70
15241;DHT22;7723;52.170;9.978;2022-10-31T11:11:24;18.60;13.20
15241;DHT22;7723;52.170;9.978;2022-10-31T11:14:00;18.50;12.10
15241;DHT22;7723;52.170;9.978;2022-10-31T11:16:31;18.30;10.50
15241;DHT22;7723;52.170;9.978;2022-10-31T11:19:08;18.30;15.40
15241;DHT22;7723;52.170;9.978;2022-10-31T11:21:40;18.50;13.60
15241;DHT22;7723;52.170;9.978;2022-10-31T11:24:15;18.40;11.40
15241;DHT22;7723;52.170;9.978;2022-10-31T11:26:45;18.50;14.10
15241;DHT22;7723;52.170;9.978;2022-10-31T11:29:20;18.50;13.20
15241;DHT22;7723;52.170;9.978;2022-10-31T11:31:50;18.50;16.80
15241;DHT22;7723;52.170;9.978;2022-10-31T11:34:29;18.60;16.10
15241;DHT22;7723;52.170;9.978;2022-10-31T11:37:03;18.60;12.80
15241;DHT22;7723;52.170;9.978;2022-10-31T11:39:41;18.60;15.30
15241;DHT22;7723;52.170;9.978;2022-10-31T11:42:09;18.70;15.10
15241;DHT22;7723;52.170;9.978;2022-10-31T11:44:36;18.60;14.90
15241;DHT22;7723;52.170;9.978;2022-10-31T11:47:13;18.60;14.40
15241;DHT22;7723;52.170;9.978;2022-10-31T11:49:42;18.60;13.10
15241;DHT22;7723;52.170;9.978;2022-10-31T11:52:15;18.40;15.40
15241;DHT22;7723;52.170;9.978;2022-10-31T11:54:48;18.30;13.60
15241;DHT22;7723;52.170;9.978;2022-10-31T11:57:27;18.40;13.90
15241;DHT22;7723;52.170;9.978;2022-10-31T11:59:57;18.40;16.80
15241;DHT22;7723;52.170;9.978;2022-10-31T12:02:25;18.50;18.60
15241;DHT22;7723;52.170;9.978;2022-10-31T12:04:59;18.50;16.70
15241;DHT22;7723;52.170;9.978;2022-10-31T12:07:29;18.60;15.10
15241;DHT22;7723;52.170;9.978;2022-10-31T12:09:58;18.60;12.30
15241;DHT22;7723;52.170;9.978;2022-10-31T12:12:42;18.70;13.20
15241;DHT22;7723;52.170;9.978;2022-10-31T12:15:27;18.70;12.70
15241;DHT22;7723;52.170;9.978;2022-10-31T12:18:22;18.60;14.30
15241;DHT22;7723;52.170;9.978;2022-10-31T12:21:02;18.60;15.00
15241;DHT22;7723;52.170;9.978;2022-10-31T12:23:44;18.60;15.20
15241;DHT22;7723;52.170;9.978;2022-10-31T12:26:20;18.60;16.40
15241;DHT22;7723;52.170;9.978;2022-10-31T12:29:04;18.60;16.50
15241;DHT22;7723;52.170;9.978;2022-10-31T12:31:43;18.70;15.90
15241;DHT22;7723;52.170;9.978;2022-10-31T12:34:34;18.70;18.60
15241;DHT22;7723;52.170;9.978;2022-10-31T12:37:13;18.70;19.30
15241;DHT22;7723;52.170;9.978;2022-10-31T12:39:51;18.70;19.90
15241;DHT22;7723;52.170;9.978;2022-10-31T12:42:36;18.80;19.10
15241;DHT22;7723;52.170;9.978;2022-10-31T12:45:24;18.90;16.80
15241;DHT22;7723;52.170;9.978;2022-10-31T12:48:06;18.80;14.30
15241;DHT22;7723;52.170;9.978;2022-10-31T12:50:50;18.60;17.80
15241;DHT22;7723;52.170;9.978;2022-10-31T12:53:35;18.60;18.30
15241;DHT22;7723;52.170;9.978;2022-10-31T12:56:18;18.50;21.40
15241;DHT22;7723;52.170;9.978;2022-10-31T12:58:54;18.40;20.90
15241;DHT22;7723;52.170;9.978;2022-10-31T13:01:26;18.50;22.30
15241;DHT22;7723;52.170;9.978;2022-10-31T13:04:01;18.50;21.60
15241;DHT22;7723;52.170;9.978;2022-10-31T13:06:34;18.60;23.90
15241;DHT22;7723;52.170;9.978;2022-10-31T13:09:06;18.70;25.60
15241;DHT22;7723;52.170;9.978;2022-10-31T13:11:37;18.60;24.00
15241;DHT22;7723;52.170;9.978;2022-10-31T13:14:09;18.40;26.40
15241;DHT22;7723;52.170;9.978;2022-10-31T13:16:41;18.40;28.60
15241;DHT22;7723;52.170;9.978;2022-10-31T13:19:16;18.30;27.10
15241;DHT22;7723;52.170;9.978;2022-10-31T13:21:51;18.40;30.00
15241;DHT22;7723;52.170;9.978;2022-10-31T13:24:33;18.20;32.30
15241;DHT22;7723;52.170;9.978;2022-10-31T13:27:14;18.10;37.90
15241;DHT22;7723;52.170;9.978;2022-10-31T13:29:52;18.10;41.70
15241;DHT22;7723;52.170;9.978;2022-10-31T13:32:21;18.20;46.10
15241;DHT22;7723;52.170;9.978;2022-10-31T13:34:53;18.00;47.10
15241;DHT22;7723;52.170;9.978;2022-10-31T13:37:29;18.10;48.40
15241;DHT22;7723;52.170;9.978;2022-10-31T13:40:10;18.00;52.10
15241;DHT22;7723;52.170;9.978;2022-10-31T13:42:50;18.00;51.90
15241;DHT22;7723;52.170;9.978;2022-10-31T13:45:22;17.90;60.40
15241;DHT22;7723;52.170;9.978;2022-10-31T13:47:58;17.90;61.80
15241;DHT22;7723;52.170;9.978;2022-10-31T13:50:27;17.90;65.40
15241;DHT22;7723;52.170;9.978;2022-10-31T13:53:12;17.90;67.80
15241;DHT22;7723;52.170;9.978;2022-10-31T13:55:41;17.80;71.50
15241;DHT22;7723;52.170;9.978;2022-10-31T13:58:26;17.70;73.00
15241;DHT22;7723;52.170;9.978;2022-10-31T14:01:13;17.60;73.10
15241;DHT22;7723;52.170;9.978;2022-10-31T14:03:45;17.60;77.50
15241;DHT22;7723;52.170;9.978;2022-10-31T14:06:15;17.60;74.30
15241;DHT22;7723;52.170;9.978;2022-10-31T14:08:51;17.60;77.20
15241;DHT22;7723;52.170;9.978;2022-10-31T14:11:26;17.50;80.70
15241;DHT22;7723;52.170;9.978;2022-10-31T14:13:55;17.50;87.10
15241;DHT22;7723;52.170;9.978;2022-10-31T14:16:27;17.40;86.30
15241;DHT22;7723;52.170;9.978;2022-10-31T14:19:00;17.40;86.30
15241;DHT22;7723;52.170;9.978;2022-10-31T14:21:29;17.30;90.70
15241;DHT22;7723;52.170;9.978;2022-10-31T14:23:57;17.30;93.90
15241;DHT22;7723;52.170;9.978;2022-10-31T14:26:34;17.40;95.40
15241;DHT22;7723;52.170;9.978;2022-10-31T14:29:22;17.40;96.10
15241;DHT22;7723;52.170;9.978;2022-10-31T14:31:57;17.40;97.50
15241;DHT22;7723;52.170;9.978;2022-10-31T14:34:28;17.40;99.90
15241;DHT22;7723;52.170;9.978;2022-10-31T14:37:28;17.30;99.90
15241;DHT22;7723;52.170;9.978;2022-10-31T14:40:12;17.30;99.90
15241;DHT22;7723;52.170;9.978;2022-10-31T14:42:54;17.20;99.90
15241;DHT22;7723;52.170;9.978;2022-10-31T14:45:31;17.10;99.90
15241;DHT22;7723;52.170;9.978;2022-10-31T14:48:11;17.10;99.90
15241;DHT22;7723;52.170;9.978;2022-10-31T14:50:45;17.00;99.90
15241;DHT22;7723;52.170;9.978;2022-10-31T14:53:18;17.00;99.90
15241;DHT22;7723;52.170;9.978;2022-10-31T14:55:49;17.00;99.90
15241;DHT22;7723;52.170;9.978;2022-10-31T14:58:19;16.80;99.90
15241;DHT22;7723;52.170;9.978;2022-10-31T15:00:52;16.80;99.90
15241;DHT22;7723;52.170;9.978;2022-10-31T15:03:26;16.80;99.90
15241;DHT22;7723;52.170;9.978;2022-10-31T15:05:56;16.80;99.90
15241;DHT22;7723;52.170;9.978;2022-10-31T15:08:32;16.80;99.90
15241;DHT22;7723;52.170;9.978;2022-10-31T15:11:06;16.70;99.90
15241;DHT22;7723;52.170;9.978;2022-10-31T15:13:41;16.70;99.90
15241;DHT22;7723;52.170;9.978;2022-10-31T15:16:11;16.60;99.90
15241;DHT22;7723;52.170;9.978;2022-10-31T15:18:51;16.50;99.90
15241;DHT22;7723;52.170;9.978;2022-10-31T15:21:20;16.40;99.90
15241;DHT22;7723;52.170;9.978;2022-10-31T15:23:50;16.30;99.90
15241;DHT22;7723;52.170;9.978;2022-10-31T15:26:20;16.20;99.90
15241;DHT22;7723;52.170;9.978;2022-10-31T15:28:58;16.20;99.90
15241;DHT22;7723;52.170;9.978;2022-10-31T15:31:28;16.20;99.90
15241;DHT22;7723;52.170;9.978;2022-10-31T15:34:02;16.10;99.90
15241;DHT22;7723;52.170;9.978;2022-10-31T15:36:31;16.00;99.90
15241;DHT22;7723;52.170;9.978;2022-10-31T15:38:58;16.00;99.90
15241;DHT22;7723;52.170;9.978;2022-10-31T15:41:31;15.90;99.90
15241;DHT22;7723;52.170;9.978;2022-10-31T15:44:04;15.90;99.90
15241;DHT22;7723;52.170;9.978;2022-10-31T15:46:32;15.90;99.90
15241;DHT22;7723;52.170;9.978;2022-10-31T15:49:02;15.90;99.90
15241;DHT22;7723;52.170;9.978;2022-10-31T15:51:31;15.90;99.90
15241;DHT22;7723;52.170;9.978;2022-10-31T15:54:02;15.80;99.90
15241;DHT22;7723;52.170;9.978;2022-10-31T15:56:31;15.80;99.90
15241;DHT22;7723;52.170;9.978;2022-10-31T15:59:00;15.70;99.90
15241;DHT22;7723;52.170;9.978;2022-10-31T16:01:29;15.80;99.90
15241;DHT22;7723;52.170;9.978;2022-10-31T16:04:01;15.70;99.90
15241;DHT22;7723;52.170;9.978;2022-10-31T16:06:30;15.60;99.90
15241;DHT22;7723;52.170;9.978;2022-10-31T16:08:57;15.60;99.90
15241;DHT22;7723;52.170;9.978;2022-10-31T16:11:31;15.50;99.90